createdAt,value
2023-01-27T00:01:04.793Z,9.63
2023-01-27T00:03:32.430Z,9.73
2023-01-27T00:06:01.563Z,5.85
2023-01-27T00:08:29.878Z,8.15
2023-01-27T00:11:20.233Z,8.80
2023-01-27T00:13:47.681Z,7.45
2023-01-27T00:16:15.313Z,6.15
2023-01-27T00:18:42.794Z,8.02
2023-01-27T00:21:28.691Z,7.07
2023-01-27T00:24:15.026Z,8.02
2023-01-27T00:26:42.619Z,8.50
2023-01-27T00:29:10.107Z,8.77
2023-01-27T00:31:56.007Z,8.05
2023-01-27T00:34:23.463Z,10.02
2023-01-27T00:36:50.974Z,10.23
2023-01-27T00:39:18.472Z,7.60
2023-01-27T00:41:46.051Z,7.72
2023-01-27T00:44:13.743Z,9.25
2023-01-27T00:46:43.053Z,9.10
2023-01-27T00:49:11.536Z,10.02
2023-01-27T00:51:39.353Z,11.77
2023-01-27T00:54:07.016Z,13.85
2023-01-27T00:56:34.918Z,12.70
2023-01-27T00:59:02.670Z,13.02
2023-01-27T01:01:31.130Z,9.75
2023-01-27T01:04:00.161Z,11.20
2023-01-27T01:06:28.753Z,11.48
2023-01-27T01:08:57.956Z,8.88
2023-01-27T01:11:26.747Z,9.63
2023-01-27T01:13:56.293Z,10.52
2023-01-27T01:16:25.401Z,11.13
2023-01-27T01:18:54.094Z,10.48
2023-01-27T01:21:22.280Z,10.63
2023-01-27T01:23:50.180Z,11.93
2023-01-27T01:26:18.319Z,11.27
2023-01-27T01:28:46.841Z,10.30
2023-01-27T01:31:17.735Z,10.07
2023-01-27T01:33:46.250Z,10.45
2023-01-27T01:36:17.903Z,12.25
2023-01-27T01:38:45.682Z,10.18
2023-01-27T01:41:17.610Z,9.90
2023-01-27T01:43:45.232Z,10.52
2023-01-27T01:46:13.691Z,10.95
2023-01-27T01:48:52.505Z,10.05
2023-01-27T01:51:31.538Z,10.45
2023-01-27T01:54:04.096Z,11.55
2023-01-27T01:56:44.006Z,9.00
2023-01-27T01:59:26.764Z,12.07
2023-01-27T02:01:58.367Z,10.15
2023-01-27T02:04:32.003Z,10.20
2023-01-27T02:07:08.925Z,11.80
2023-01-27T02:09:41.847Z,11.77
2023-01-27T02:12:12.433Z,10.80
2023-01-27T02:14:41.704Z,9.90
2023-01-27T02:17:29.288Z,9.38
2023-01-27T02:20:38.670Z,10.70
2023-01-27T02:23:48.208Z,10.70
2023-01-27T02:26:21.108Z,11.75
2023-01-27T02:29:11.134Z,8.30
2023-01-27T02:31:39.342Z,11.50
2023-01-27T02:34:15.336Z,11.00
2023-01-27T02:36:56.390Z,9.70
2023-01-27T02:39:29.983Z,11.20
2023-01-27T02:41:59.491Z,10.70
2023-01-27T02:44:27.071Z,11.32
2023-01-27T02:46:54.580Z,9.75
2023-01-27T02:49:23.003Z,10.98
2023-01-27T02:51:55.442Z,9.50
2023-01-27T02:54:25.979Z,9.63
2023-01-27T02:56:53.582Z,7.28
2023-01-27T02:59:24.649Z,9.93
2023-01-27T03:01:52.194Z,9.80
2023-01-27T03:04:20.454Z,11.80
2023-01-27T03:06:47.949Z,12.85
2023-01-27T03:09:15.674Z,14.48
2023-01-27T03:12:01.622Z,12.50
2023-01-27T03:14:48.257Z,9.07
2023-01-27T03:17:34.832Z,11.50
2023-01-27T03:20:03.697Z,10.90
2023-01-27T03:22:31.430Z,9.30
2023-01-27T03:25:00.216Z,9.38
2023-01-27T03:27:27.986Z,9.18
2023-01-27T03:30:21.407Z,9.02
2023-01-27T03:33:04.320Z,10.43
2023-01-27T03:36:25.701Z,8.80
2023-01-27T03:39:11.434Z,9.68
2023-01-27T03:41:57.348Z,12.25
2023-01-27T03:44:46.162Z,9.93
2023-01-27T03:47:13.696Z,7.32
2023-01-27T03:49:41.170Z,7.75
2023-01-27T03:52:08.693Z,9.30
2023-01-27T03:54:36.143Z,9.20
2023-01-27T03:57:06.664Z,8.88
2023-01-27T03:59:35.527Z,9.05
2023-01-27T04:02:21.303Z,8.48
2023-01-27T04:05:07.250Z,8.77
2023-01-27T04:07:38.225Z,6.80
2023-01-27T04:10:06.488Z,9.75
2023-01-27T04:12:33.970Z,8.10
2023-01-27T04:15:01.536Z,8.02
2023-01-27T04:17:39.094Z,8.50
2023-01-27T04:20:07.092Z,9.10
2023-01-27T04:22:34.603Z,7.43
2023-01-27T04:25:02.133Z,8.65
2023-01-27T04:27:30.935Z,7.32
2023-01-27T04:29:58.430Z,7.90
2023-01-27T04:32:26.491Z,7.53
2023-01-27T04:34:54.514Z,10.13
2023-01-27T04:37:22.031Z,9.32
2023-01-27T04:39:49.583Z,7.30
2023-01-27T04:42:17.071Z,8.15
2023-01-27T04:44:44.603Z,8.13
2023-01-27T04:47:12.067Z,8.48
2023-01-27T04:49:39.548Z,8.68
2023-01-27T04:52:07.150Z,9.45
2023-01-27T04:54:34.594Z,8.48
2023-01-27T04:57:05.923Z,8.05
2023-01-27T04:59:33.478Z,9.38
2023-01-27T05:02:01.132Z,9.20
2023-01-27T05:04:28.768Z,8.80
2023-01-27T05:06:56.317Z,8.30
2023-01-27T05:09:23.967Z,7.70
2023-01-27T05:11:51.451Z,9.68
2023-01-27T05:14:19.158Z,7.32
2023-01-27T05:16:46.701Z,9.80
2023-01-27T05:19:14.297Z,8.65
2023-01-27T05:21:43.574Z,8.32
2023-01-27T05:24:11.827Z,7.82
2023-01-27T05:26:39.484Z,7.45
2023-01-27T05:29:07.128Z,8.88
2023-01-27T05:31:34.701Z,8.52
2023-01-27T05:34:02.772Z,8.90
2023-01-27T05:36:30.491Z,8.57
2023-01-27T05:38:59.629Z,8.68
2023-01-27T05:41:29.806Z,10.82
2023-01-27T05:43:57.924Z,9.40
2023-01-27T05:46:28.172Z,9.68
2023-01-27T05:49:02.237Z,9.63
2023-01-27T05:51:31.339Z,9.82
2023-01-27T05:53:58.953Z,9.65
2023-01-27T05:56:26.825Z,12.02
2023-01-27T05:58:55.674Z,9.68
2023-01-27T06:01:33.788Z,6.57
2023-01-27T06:04:02.144Z,9.45
2023-01-27T06:06:31.602Z,10.25
2023-01-27T06:09:00.683Z,7.75
2023-01-27T06:11:28.297Z,8.00
2023-01-27T06:13:55.992Z,10.48
2023-01-27T06:16:24.180Z,9.60
2023-01-27T06:18:52.084Z,8.57
2023-01-27T06:21:20.786Z,10.55
2023-01-27T06:23:49.437Z,8.57
2023-01-27T06:26:19.505Z,8.45
2023-01-27T06:28:47.802Z,9.05
2023-01-27T06:31:18.668Z,8.43
2023-01-27T06:33:46.262Z,10.00
2023-01-27T06:36:16.208Z,9.05
2023-01-27T06:38:44.718Z,11.45
2023-01-27T06:41:12.557Z,8.50
2023-01-27T06:43:40.089Z,11.07
2023-01-27T06:46:07.652Z,7.80
2023-01-27T06:48:35.231Z,10.07
2023-01-27T06:51:02.804Z,9.27
2023-01-27T06:53:31.737Z,8.80
2023-01-27T06:56:01.380Z,10.88
2023-01-27T06:58:29.944Z,9.63
2023-01-27T07:00:57.784Z,11.95
2023-01-27T07:03:26.799Z,7.47
2023-01-27T07:05:54.352Z,10.25
2023-01-27T07:08:21.976Z,9.68
2023-01-27T07:10:49.546Z,11.43
2023-01-27T07:13:18.935Z,10.40
2023-01-27T07:15:46.824Z,7.90
2023-01-27T07:18:14.627Z,8.02
2023-01-27T07:20:42.688Z,7.97
2023-01-27T07:23:11.001Z,8.27
2023-01-27T07:25:39.475Z,8.85
2023-01-27T07:28:07.082Z,5.38
2023-01-27T07:30:35.299Z,9.63
2023-01-27T07:33:07.458Z,12.25
2023-01-27T07:35:36.979Z,9.65
2023-01-27T07:38:05.666Z,8.60
2023-01-27T07:40:33.587Z,6.55
2023-01-27T07:43:02.422Z,8.68
2023-01-27T07:45:30.729Z,11.93
2023-01-27T07:48:05.813Z,9.30
2023-01-27T07:50:33.981Z,9.73
2023-01-27T07:53:03.146Z,9.13
2023-01-27T07:55:31.571Z,9.43
2023-01-27T07:57:59.278Z,7.55
2023-01-27T08:00:28.559Z,11.43
2023-01-27T08:02:57.777Z,9.63
2023-01-27T08:05:25.914Z,9.90
2023-01-27T08:07:55.724Z,9.70
2023-01-27T08:10:24.222Z,9.25
2023-01-27T08:12:51.760Z,9.80
2023-01-27T08:15:19.457Z,16.23
2023-01-27T08:17:57.720Z,9.82
2023-01-27T08:20:27.477Z,9.80
2023-01-27T08:22:55.049Z,10.00
2023-01-27T08:25:23.173Z,12.98
2023-01-27T08:27:52.237Z,9.75
2023-01-27T08:30:20.574Z,8.93
2023-01-27T08:32:48.244Z,9.45
2023-01-27T08:35:15.791Z,9.10
2023-01-27T08:37:43.432Z,8.65
2023-01-27T08:40:11.971Z,9.25
2023-01-27T08:42:40.562Z,8.05
2023-01-27T08:45:09.209Z,9.35
2023-01-27T08:47:36.817Z,8.63
2023-01-27T08:50:04.562Z,9.27
2023-01-27T08:52:32.187Z,9.20
2023-01-27T08:54:59.958Z,7.03
2023-01-27T08:57:27.549Z,8.35
2023-01-27T08:59:55.045Z,8.65
2023-01-27T09:02:24.571Z,8.90
2023-01-27T09:04:52.119Z,9.43
2023-01-27T09:07:19.999Z,7.47
2023-01-27T09:09:48.458Z,7.68
2023-01-27T09:12:16.543Z,8.18
2023-01-27T09:14:44.184Z,6.72
2023-01-27T09:17:11.977Z,10.55
2023-01-27T09:19:39.471Z,7.43
2023-01-27T09:22:07.019Z,9.68
2023-01-27T09:24:34.559Z,7.88
2023-01-27T09:27:02.171Z,6.72
2023-01-27T09:29:30.179Z,8.95
2023-01-27T09:31:57.688Z,8.88
2023-01-27T09:34:25.255Z,7.88
2023-01-27T09:36:57.801Z,7.53
2023-01-27T09:39:26.839Z,9.10
2023-01-27T09:42:18.927Z,9.10
2023-01-27T09:45:24.875Z,7.83
2023-01-27T09:48:00.056Z,7.22
2023-01-27T09:50:42.997Z,8.88
2023-01-27T09:53:42.322Z,7.65
2023-01-27T09:56:23.320Z,6.25
2023-01-27T09:58:55.922Z,8.27
2023-01-27T10:01:47.895Z,9.65
2023-01-27T10:04:33.573Z,7.28
2023-01-27T10:07:24.598Z,7.95
2023-01-27T10:10:04.376Z,7.40
2023-01-27T10:12:53.776Z,6.25
2023-01-27T10:15:24.151Z,11.23
2023-01-27T10:18:11.093Z,8.32
2023-01-27T10:20:53.333Z,6.20
2023-01-27T10:23:39.378Z,7.18
2023-01-27T10:26:09.746Z,9.65
2023-01-27T10:28:38.710Z,7.57
2023-01-27T10:31:18.925Z,6.55
2023-01-27T10:34:02.043Z,5.95
2023-01-27T10:36:43.690Z,7.18
2023-01-27T10:39:11.250Z,11.40
2023-01-27T10:41:38.642Z,6.88
2023-01-27T10:44:24.845Z,5.75
2023-01-27T10:47:22.455Z,5.65
2023-01-27T10:49:56.557Z,6.78
2023-01-27T10:52:30.040Z,6.93
2023-01-27T10:55:00.307Z,7.13
2023-01-27T10:57:40.480Z,8.73
2023-01-27T11:00:46.518Z,6.82
2023-01-27T11:03:26.027Z,6.97
2023-01-27T11:05:58.283Z,8.68
2023-01-27T11:08:31.531Z,7.85
2023-01-27T11:11:22.179Z,6.55
2023-01-27T11:13:51.500Z,7.43
2023-01-27T11:16:20.507Z,10.23
2023-01-27T11:18:57.454Z,7.38
2023-01-27T11:21:30.687Z,6.28
2023-01-27T11:24:06.480Z,7.75
2023-01-27T11:26:40.699Z,5.65
2023-01-27T11:29:34.565Z,9.27
2023-01-27T11:32:31.973Z,6.78
2023-01-27T11:35:04.176Z,8.48
2023-01-27T11:37:41.388Z,5.80
2023-01-27T11:40:15.193Z,6.90
2023-01-27T11:45:20.452Z,7.15
2023-01-27T11:47:56.314Z,8.63
2023-01-27T11:50:27.603Z,7.55
2023-01-27T11:53:05.487Z,7.57
2023-01-27T11:55:44.040Z,8.63
2023-01-27T11:58:31.060Z,7.05
2023-01-27T12:01:06.069Z,8.13
2023-01-27T12:03:58.681Z,8.77
2023-01-27T12:06:36.025Z,12.15
2023-01-27T12:09:03.721Z,6.45
2023-01-27T12:11:32.898Z,7.90
2023-01-27T12:14:03.178Z,8.95
2023-01-27T12:16:33.882Z,5.78
2023-01-27T12:19:04.876Z,6.65
2023-01-27T12:21:42.994Z,7.50
2023-01-27T12:24:27.833Z,6.25
2023-01-27T12:26:57.653Z,5.90
2023-01-27T12:29:51.118Z,6.55
2023-01-27T12:32:43.313Z,5.75
2023-01-27T12:35:31.242Z,6.00
2023-01-27T12:38:05.183Z,7.38
2023-01-27T12:43:14.258Z,7.85
2023-01-27T12:45:43.798Z,7.90
2023-01-27T12:48:14.442Z,7.95
2023-01-27T12:50:51.306Z,7.03
2023-01-27T12:53:28.162Z,8.70
2023-01-27T12:56:08.400Z,7.28
2023-01-27T12:58:39.013Z,6.03
2023-01-27T13:01:26.507Z,6.75
2023-01-27T13:04:07.381Z,3.80
2023-01-27T13:06:51.673Z,6.53
2023-01-27T13:09:31.177Z,5.97
2023-01-27T13:12:02.611Z,6.15
2023-01-27T13:14:33.703Z,8.20
2023-01-27T13:17:02.385Z,7.40
2023-01-27T13:19:54.816Z,6.93
2023-01-27T13:22:25.306Z,6.97
2023-01-27T13:24:59.022Z,6.07
2023-01-27T13:27:29.878Z,7.85
2023-01-27T13:30:04.190Z,8.57
2023-01-27T13:32:36.889Z,12.02
2023-01-27T13:35:17.649Z,7.18
2023-01-27T13:38:16.154Z,7.63
2023-01-27T13:40:47.930Z,8.43
2023-01-27T13:43:30.938Z,6.35
2023-01-27T13:46:07.187Z,4.82
2023-01-27T13:48:43.103Z,6.80
2023-01-27T13:51:14.487Z,6.20
2023-01-27T13:53:43.061Z,6.82
2023-01-27T13:56:45.022Z,6.25
2023-01-27T13:59:20.218Z,6.63
2023-01-27T14:01:53.736Z,8.00
2023-01-27T14:04:42.731Z,7.35
2023-01-27T14:07:29.413Z,5.57
2023-01-27T14:10:03.106Z,7.70
2023-01-27T14:12:42.979Z,10.07
2023-01-27T14:15:38.444Z,7.10
2023-01-27T14:18:31.162Z,7.82
2023-01-27T14:23:56.688Z,6.15
2023-01-27T14:26:35.568Z,8.45
2023-01-27T14:29:30.939Z,6.55
2023-01-27T14:32:13.119Z,6.80
2023-01-27T14:35:06.227Z,5.15
2023-01-27T14:37:43.010Z,6.45
2023-01-27T14:40:44.539Z,8.45
2023-01-27T14:43:20.990Z,7.28
2023-01-27T14:45:56.393Z,7.63
2023-01-27T14:48:30.007Z,10.50
2023-01-27T14:51:09.755Z,7.82
2023-01-27T14:53:55.715Z,7.38
2023-01-27T14:56:35.823Z,7.97
2023-01-27T14:59:35.729Z,6.22
2023-01-27T15:02:28.291Z,9.00
2023-01-27T15:05:30.575Z,7.05
2023-01-27T15:08:15.730Z,7.38
2023-01-27T15:11:01.281Z,6.57
2023-01-27T15:13:48.503Z,8.63
2023-01-27T15:16:28.269Z,6.20
2023-01-27T15:19:06.305Z,6.32
2023-01-27T15:21:42.153Z,5.55
2023-01-27T15:24:35.950Z,6.57
2023-01-27T15:27:05.134Z,5.95
2023-01-27T15:29:33.136Z,7.57
2023-01-27T15:32:16.251Z,7.15
2023-01-27T15:34:46.555Z,6.90
2023-01-27T15:37:24.613Z,8.02
2023-01-27T15:40:15.667Z,7.43
2023-01-27T15:43:02.589Z,6.78
2023-01-27T15:45:39.176Z,7.20
2023-01-27T15:48:20.543Z,8.27
2023-01-27T15:50:54.081Z,5.50
2023-01-27T15:53:34.819Z,4.07
2023-01-27T15:56:04.108Z,9.20
2023-01-27T15:58:40.093Z,6.68
2023-01-27T16:01:24.267Z,6.32
2023-01-27T16:03:53.291Z,8.20
2023-01-27T16:06:25.884Z,5.78
2023-01-27T16:09:00.454Z,10.63
2023-01-27T16:11:30.950Z,8.45
2023-01-27T16:14:16.721Z,6.47
2023-01-27T16:17:03.111Z,5.43
2023-01-27T16:19:33.513Z,6.75
2023-01-27T16:22:13.874Z,8.48
2023-01-27T16:24:41.341Z,5.90
2023-01-27T16:27:22.995Z,5.82
2023-01-27T16:30:07.121Z,5.20
2023-01-27T16:32:46.955Z,5.70
2023-01-27T16:35:21.938Z,5.57
2023-01-27T16:38:15.326Z,5.10
2023-01-27T16:40:50.621Z,5.28
2023-01-27T16:43:22.964Z,5.63
2023-01-27T16:45:53.174Z,6.93
2023-01-27T16:48:44.912Z,6.72
2023-01-27T16:51:20.370Z,6.55
2023-01-27T16:53:52.866Z,4.95
2023-01-27T16:56:29.056Z,6.03
2023-01-27T16:59:03.158Z,7.80
2023-01-27T17:01:33.567Z,6.03
2023-01-27T17:04:18.074Z,5.15
2023-01-27T17:06:48.750Z,6.28
2023-01-27T17:09:28.513Z,5.63
2023-01-27T17:11:56.061Z,5.75
2023-01-27T17:14:35.331Z,6.13
2023-01-27T17:17:05.457Z,4.97
2023-01-27T17:19:35.992Z,6.97
2023-01-27T17:22:10.428Z,6.88
2023-01-27T17:24:45.651Z,6.10
2023-01-27T17:27:31.610Z,9.20
2023-01-27T17:30:07.647Z,8.65
2023-01-27T17:32:40.334Z,5.72
2023-01-27T17:35:19.966Z,5.95
2023-01-27T17:37:47.895Z,6.18
2023-01-27T17:40:18.883Z,7.13
2023-01-27T17:42:46.859Z,8.85
2023-01-27T17:45:30.727Z,5.10
2023-01-27T17:48:00.189Z,4.50
2023-01-27T17:50:36.567Z,5.60
2023-01-27T17:53:10.425Z,6.60
2023-01-27T17:55:38.729Z,6.03
2023-01-27T17:58:10.910Z,6.72
2023-01-27T18:00:40.542Z,7.28
2023-01-27T18:03:22.285Z,4.22
2023-01-27T18:05:53.813Z,5.55
2023-01-27T18:08:23.919Z,5.97
2023-01-27T18:10:52.016Z,6.22
2023-01-27T18:13:19.636Z,5.68
2023-01-27T18:16:08.905Z,7.07
2023-01-27T18:18:37.094Z,5.38
2023-01-27T18:21:04.552Z,2.50
2023-01-27T18:23:36.880Z,4.20
2023-01-27T18:26:15.726Z,6.75
2023-01-27T18:28:43.932Z,4.22
2023-01-27T18:31:33.158Z,5.50
2023-01-27T18:34:28.745Z,4.68
2023-01-27T18:37:06.507Z,4.43
2023-01-27T18:39:37.625Z,5.88
2023-01-27T18:42:16.340Z,5.85
2023-01-27T18:44:44.479Z,6.25
2023-01-27T18:47:17.759Z,4.60
2023-01-27T18:50:18.578Z,5.53
2023-01-27T18:52:47.282Z,5.80
2023-01-27T18:55:26.596Z,5.55
2023-01-27T18:57:59.442Z,6.88
2023-01-27T19:00:31.147Z,4.30
2023-01-27T19:03:01.576Z,5.90
2023-01-27T19:05:31.963Z,5.65
2023-01-27T19:08:00.174Z,6.55
2023-01-27T19:10:31.600Z,7.22
2023-01-27T19:13:00.943Z,6.63
2023-01-27T19:15:31.921Z,8.15
2023-01-27T19:18:02.491Z,5.05
2023-01-27T19:20:31.495Z,6.30
2023-01-27T19:22:59.661Z,6.57
2023-01-27T19:25:30.626Z,4.68
2023-01-27T19:28:03.617Z,6.03
2023-01-27T19:30:38.137Z,5.77
2023-01-27T19:33:18.596Z,6.07
2023-01-27T19:35:49.937Z,7.88
2023-01-27T19:38:17.678Z,6.03
2023-01-27T19:40:45.322Z,4.57
2023-01-27T19:43:14.545Z,6.00
2023-01-27T19:45:43.299Z,6.15
2023-01-27T19:48:22.712Z,5.88
2023-01-27T19:50:52.028Z,4.28
2023-01-27T19:53:20.565Z,4.22
2023-01-27T19:55:48.854Z,5.72
2023-01-27T19:58:25.016Z,4.10
2023-01-27T20:00:53.897Z,4.30
2023-01-27T20:03:22.064Z,5.35
2023-01-27T20:05:49.759Z,4.97
2023-01-27T20:08:20.716Z,6.40
2023-01-27T20:10:48.483Z,6.10
2023-01-27T20:13:20.731Z,5.72
2023-01-27T20:15:48.479Z,5.80
2023-01-27T20:18:17.911Z,5.65
2023-01-27T20:20:47.040Z,6.63
2023-01-27T20:23:15.480Z,4.32
2023-01-27T20:25:43.622Z,7.57
2023-01-27T20:28:12.537Z,6.05
2023-01-27T20:30:41.841Z,5.88
2023-01-27T20:33:10.401Z,6.07
2023-01-27T20:35:38.152Z,7.38
2023-01-27T20:38:06.130Z,5.88
2023-01-27T20:40:33.775Z,6.30
2023-01-27T20:43:02.585Z,8.13
2023-01-27T20:45:30.239Z,5.00
2023-01-27T20:47:59.080Z,6.78
2023-01-27T20:50:26.627Z,6.25
2023-01-27T20:52:54.404Z,6.30
2023-01-27T20:55:22.785Z,6.15
2023-01-27T20:57:50.395Z,7.68
2023-01-27T21:00:20.138Z,5.63
2023-01-27T21:02:47.871Z,5.03
2023-01-27T21:05:16.450Z,6.68
2023-01-27T21:07:45.974Z,6.50
2023-01-27T21:10:13.620Z,5.30
2023-01-27T21:12:41.166Z,6.57
2023-01-27T21:15:10.124Z,4.30
2023-01-27T21:17:37.880Z,8.10
2023-01-27T21:20:06.677Z,6.53
2023-01-27T21:22:34.778Z,7.82
2023-01-27T21:25:02.501Z,8.27
2023-01-27T21:27:30.757Z,8.70
2023-01-27T21:29:58.319Z,6.25
2023-01-27T21:32:26.081Z,6.88
2023-01-27T21:34:53.573Z,7.03
2023-01-27T21:37:21.317Z,5.43
2023-01-27T21:39:48.766Z,7.55
2023-01-27T21:42:18.911Z,6.25
2023-01-27T21:45:04.761Z,5.28
2023-01-27T21:47:32.390Z,8.10
2023-01-27T21:50:03.087Z,6.90
2023-01-27T21:52:41.057Z,6.00
2023-01-27T21:55:34.402Z,6.22
2023-01-27T21:58:02.018Z,5.78
2023-01-27T22:00:30.046Z,5.38
2023-01-27T22:03:05.662Z,8.50
2023-01-27T22:05:36.117Z,7.32
2023-01-27T22:08:03.860Z,6.82
2023-01-27T22:10:31.488Z,7.57
2023-01-27T22:13:00.833Z,5.53
2023-01-27T22:15:31.064Z,5.68
2023-01-27T22:17:58.909Z,4.47
2023-01-27T22:20:27.471Z,4.97
2023-01-27T22:22:55.502Z,6.60
2023-01-27T22:25:23.284Z,6.40
2023-01-27T22:27:54.131Z,4.50
2023-01-27T22:30:21.935Z,4.25
2023-01-27T22:32:50.166Z,5.93
2023-01-27T22:35:18.873Z,7.78
2023-01-27T22:37:49.223Z,5.07
2023-01-27T22:40:17.312Z,4.75
2023-01-27T22:42:45.073Z,4.13
2023-01-27T22:45:13.200Z,4.55
2023-01-27T22:47:40.856Z,4.22
2023-01-27T22:50:09.759Z,5.35
2023-01-27T22:52:38.251Z,4.97
2023-01-27T22:55:07.797Z,3.65
2023-01-27T22:57:35.675Z,2.97
2023-01-27T23:00:04.540Z,3.30
2023-01-27T23:02:32.919Z,3.63
2023-01-27T23:05:01.072Z,4.28
2023-01-27T23:07:30.712Z,4.13
2023-01-27T23:09:58.254Z,4.40
2023-01-27T23:12:25.769Z,4.30
2023-01-27T23:14:53.441Z,4.57
2023-01-27T23:17:21.032Z,4.55
2023-01-27T23:19:48.550Z,3.42
2023-01-27T23:22:16.093Z,4.07
2023-01-27T23:24:43.543Z,4.13
2023-01-27T23:27:11.136Z,4.57
2023-01-27T23:29:38.743Z,3.50
2023-01-27T23:32:06.654Z,4.28
2023-01-27T23:34:34.204Z,4.07
2023-01-27T23:37:01.923Z,3.55
2023-01-27T23:39:29.480Z,3.97
2023-01-27T23:41:57.050Z,4.43
2023-01-27T23:44:24.533Z,3.97
2023-01-27T23:46:52.092Z,4.95
2023-01-27T23:49:19.622Z,4.68
2023-01-27T23:51:47.361Z,5.57
2023-01-27T23:54:14.876Z,4.72
2023-01-27T23:56:42.437Z,4.18
2023-01-27T23:59:12.442Z,4.38
